createdAt,value
2022-09-26T00:00:18.226Z,42.50
2022-09-26T00:02:51.507Z,25.90
2022-09-26T00:05:04.870Z,40.30
2022-09-26T00:07:18.214Z,55.10
2022-09-26T00:09:32.304Z,54.80
2022-09-26T00:11:45.771Z,51.10
2022-09-26T00:14:01.452Z,38.80
2022-09-26T00:16:16.840Z,27.80
2022-09-26T00:18:30.412Z,23.90
2022-09-26T00:20:45.161Z,65.60
2022-09-26T00:22:58.435Z,46.50
2022-09-26T00:25:14.036Z,34.30
2022-09-26T00:27:27.287Z,32.80
2022-09-26T00:29:40.511Z,29.60
2022-09-26T00:31:54.870Z,35.00
2022-09-26T00:34:08.616Z,36.70
2022-09-26T00:36:29.670Z,25.80
2022-09-26T00:38:50.466Z,42.00
2022-09-26T00:41:04.013Z,38.20
2022-09-26T00:43:33.742Z,43.00
2022-09-26T00:45:47.716Z,41.90
2022-09-26T00:48:05.047Z,44.70
2022-09-26T00:50:24.201Z,33.40
2022-09-26T00:52:40.330Z,42.90
2022-09-26T00:54:57.983Z,37.90
2022-09-26T00:57:16.064Z,37.80
2022-09-26T00:59:32.146Z,38.80
2022-09-26T01:01:46.375Z,39.40
2022-09-26T01:04:00.996Z,14.50
2022-09-26T01:06:15.236Z,27.60
2022-09-26T01:08:35.379Z,36.80
2022-09-26T01:10:48.873Z,40.50
2022-09-26T01:13:03.394Z,39.80
2022-09-26T01:15:17.460Z,60.90
2022-09-26T01:17:31.454Z,38.20
2022-09-26T01:20:02.826Z,25.80
2022-09-26T01:22:49.339Z,27.90
2022-09-26T01:25:22.285Z,39.80
2022-09-26T01:28:09.992Z,33.40
2022-09-26T01:30:27.831Z,25.00
2022-09-26T01:32:56.903Z,28.70
2022-09-26T01:35:20.873Z,49.60
2022-09-26T01:37:43.808Z,87.70
2022-09-26T01:40:07.301Z,58.30
2022-09-26T01:42:29.876Z,52.80
2022-09-26T01:47:05.472Z,39.80
2022-09-26T01:49:22.931Z,52.00
2022-09-26T01:51:42.721Z,58.00
2022-09-26T01:53:59.975Z,63.50
2022-09-26T01:56:17.773Z,44.60
2022-09-26T01:58:36.965Z,41.30
2022-09-26T02:00:54.042Z,19.20
2022-09-26T02:03:09.553Z,49.40
2022-09-26T02:05:30.499Z,96.00
2022-09-26T02:07:48.028Z,91.00
2022-09-26T02:10:05.470Z,81.90
2022-09-26T02:12:34.062Z,80.50
2022-09-26T02:14:51.460Z,73.70
2022-09-26T02:17:09.803Z,77.80
2022-09-26T02:19:26.974Z,65.30
2022-09-26T02:21:40.842Z,34.30
2022-09-26T02:23:56.343Z,39.60
2022-09-26T02:26:10.422Z,33.60
2022-09-26T02:28:24.632Z,26.20
2022-09-26T02:30:38.648Z,27.90
2022-09-26T02:32:52.558Z,23.30
2022-09-26T02:35:37.919Z,24.20
2022-09-26T02:37:51.269Z,16.20
2022-09-26T02:40:05.179Z,12.60
2022-09-26T02:42:29.587Z,13.20
2022-09-26T02:44:54.786Z,8.90
2022-09-26T02:47:26.669Z,21.00
2022-09-26T02:50:04.357Z,28.50
2022-09-26T02:52:33.738Z,22.90
2022-09-26T02:54:57.069Z,35.50
2022-09-26T02:57:30.087Z,22.50
2022-09-26T03:02:08.930Z,26.30
2022-09-26T03:04:33.791Z,23.30
2022-09-26T03:06:51.333Z,16.70
2022-09-26T03:09:06.955Z,26.40
2022-09-26T03:11:27.539Z,19.20
2022-09-26T03:13:44.037Z,23.60
2022-09-26T03:16:00.019Z,16.40
2022-09-26T03:18:18.321Z,14.00
2022-09-26T03:20:32.644Z,16.00
2022-09-26T03:22:46.972Z,16.40
2022-09-26T03:25:01.943Z,9.00
2022-09-26T03:27:20.094Z,7.20
2022-09-26T03:29:35.448Z,11.70
2022-09-26T03:31:51.549Z,14.50
2022-09-26T03:34:05.528Z,9.30
2022-09-26T03:36:18.915Z,7.80
2022-09-26T03:38:32.399Z,12.20
2022-09-26T03:40:56.979Z,14.10
2022-09-26T03:43:44.929Z,13.70
2022-09-26T03:45:58.534Z,14.50
2022-09-26T03:48:12.728Z,15.20
2022-09-26T03:50:26.224Z,12.70
2022-09-26T03:52:39.642Z,15.00
2022-09-26T03:54:54.434Z,11.60
2022-09-26T03:57:07.957Z,9.10
2022-09-26T03:59:24.233Z,10.30
2022-09-26T04:01:37.781Z,9.30
2022-09-26T04:03:52.757Z,9.40
2022-09-26T04:06:06.504Z,11.30
2022-09-26T04:08:19.927Z,15.90
2022-09-26T04:10:34.479Z,13.00
2022-09-26T04:12:48.653Z,12.30
2022-09-26T04:15:02.489Z,14.20
2022-09-26T04:17:18.001Z,18.20
2022-09-26T04:19:33.260Z,19.40
2022-09-26T04:21:46.933Z,14.50
2022-09-26T04:24:01.337Z,16.80
2022-09-26T04:26:21.733Z,17.40
2022-09-26T04:28:36.589Z,15.50
2022-09-26T04:30:50.748Z,16.70
2022-09-26T04:33:04.701Z,19.90
2022-09-26T04:35:18.063Z,26.20
2022-09-26T04:37:31.587Z,18.20
2022-09-26T04:39:44.993Z,18.30
2022-09-26T04:41:59.147Z,20.10
2022-09-26T04:44:13.995Z,20.50
2022-09-26T04:46:30.911Z,17.30
2022-09-26T04:48:45.516Z,15.10
2022-09-26T04:51:03.203Z,15.40
2022-09-26T04:53:16.415Z,14.20
2022-09-26T04:57:52.153Z,24.60
2022-09-26T05:00:06.015Z,16.90
2022-09-26T05:02:21.426Z,25.40
2022-09-26T05:04:34.734Z,25.60
2022-09-26T05:06:48.249Z,29.20
2022-09-26T05:09:10.198Z,31.00
2022-09-26T05:11:31.307Z,21.70
2022-09-26T05:13:45.155Z,24.30
2022-09-26T05:15:59.498Z,19.20
2022-09-26T05:18:13.707Z,15.30
2022-09-26T05:20:30.273Z,13.00
2022-09-26T05:22:46.016Z,15.30
2022-09-26T05:25:16.014Z,11.40
2022-09-26T05:27:29.693Z,15.10
2022-09-26T05:29:42.858Z,18.80
2022-09-26T05:31:57.643Z,11.80
2022-09-26T05:34:19.494Z,11.30
2022-09-26T05:36:33.971Z,12.90
2022-09-26T05:38:47.359Z,13.20
2022-09-26T05:41:02.031Z,11.70
2022-09-26T05:43:15.367Z,13.20
2022-09-26T05:45:28.917Z,17.20
2022-09-26T05:47:43.687Z,13.40
2022-09-26T05:49:57.803Z,12.90
2022-09-26T05:52:11.502Z,12.20
2022-09-26T05:54:25.402Z,10.50
2022-09-26T05:56:39.856Z,11.50
2022-09-26T05:59:13.006Z,7.60
2022-09-26T06:01:44.617Z,9.10
2022-09-26T06:04:04.065Z,10.10
2022-09-26T06:06:23.487Z,9.40
2022-09-26T06:08:42.279Z,11.20
2022-09-26T06:11:09.478Z,245.60
2022-09-26T06:13:22.962Z,258.80
2022-09-26T06:15:37.495Z,271.00
2022-09-26T06:17:51.358Z,266.10
2022-09-26T06:20:04.746Z,283.70
2022-09-26T06:22:18.792Z,253.40
2022-09-26T06:24:33.901Z,251.70
2022-09-26T06:26:48.908Z,219.80
2022-09-26T06:29:02.959Z,139.50
2022-09-26T06:31:23.269Z,135.40
2022-09-26T06:33:58.390Z,62.90
2022-09-26T06:36:30.697Z,26.80
2022-09-26T06:38:44.142Z,16.80
2022-09-26T06:41:02.094Z,15.40
2022-09-26T06:43:15.698Z,10.50
2022-09-26T06:45:50.240Z,11.10
2022-09-26T06:48:13.127Z,13.00
2022-09-26T06:50:43.153Z,13.90
2022-09-26T06:52:56.479Z,17.30
2022-09-26T06:55:12.459Z,19.10
2022-09-26T06:57:26.017Z,27.60
2022-09-26T06:59:40.275Z,26.40
2022-09-26T07:02:05.378Z,35.10
2022-09-26T07:04:37.080Z,24.90
2022-09-26T07:06:53.217Z,22.10
2022-09-26T07:09:15.062Z,26.90
2022-09-26T07:12:09.420Z,19.80
2022-09-26T07:14:12.080Z,16.00
2022-09-26T07:16:25.629Z,14.00
2022-09-26T07:18:57.497Z,9.90
2022-09-26T07:21:46.474Z,10.60
2022-09-26T07:24:19.911Z,6.30
2022-09-26T07:26:33.322Z,10.40
2022-09-26T07:28:50.817Z,10.00
2022-09-26T07:31:07.313Z,13.50
2022-09-26T07:35:45.626Z,9.60
2022-09-26T07:37:59.772Z,8.00
2022-09-26T07:40:15.506Z,11.80
2022-09-26T07:42:29.113Z,18.00
2022-09-26T07:47:32.433Z,11.60
2022-09-26T07:50:04.097Z,9.10
2022-09-26T07:52:37.491Z,11.30
2022-09-26T07:55:15.198Z,11.50
2022-09-26T07:57:49.591Z,11.00
2022-09-26T08:00:32.829Z,9.00
2022-09-26T08:03:06.075Z,10.10
2022-09-26T08:05:23.506Z,10.30
2022-09-26T08:07:38.470Z,13.90
2022-09-26T08:10:19.702Z,10.50
2022-09-26T08:12:59.920Z,9.80
2022-09-26T08:15:49.045Z,8.90
2022-09-26T08:18:10.030Z,9.40
2022-09-26T08:20:25.433Z,7.20
2022-09-26T08:22:41.964Z,7.40
2022-09-26T08:24:58.110Z,10.40
2022-09-26T08:27:28.211Z,8.40
2022-09-26T08:29:43.493Z,10.90
2022-09-26T08:31:56.970Z,7.00
2022-09-26T08:34:11.118Z,8.90
2022-09-26T08:36:24.380Z,10.80
2022-09-26T08:38:58.042Z,7.30
2022-09-26T08:42:04.773Z,10.50
2022-09-26T08:44:55.904Z,9.90
2022-09-26T08:47:44.033Z,7.40
2022-09-26T08:50:21.711Z,10.10
2022-09-26T08:52:44.005Z,9.00
2022-09-26T08:54:59.132Z,10.40
2022-09-26T08:57:29.597Z,7.20
2022-09-26T08:59:46.674Z,7.10
2022-09-26T09:02:08.263Z,7.30
2022-09-26T09:04:42.151Z,13.20
2022-09-26T09:07:01.864Z,10.80
2022-09-26T09:09:19.281Z,14.40
2022-09-26T09:12:08.688Z,10.00
2022-09-26T09:14:33.850Z,8.10
2022-09-26T09:16:58.900Z,8.60
2022-09-26T09:19:39.558Z,9.60
2022-09-26T09:22:36.656Z,11.20
2022-09-26T09:25:04.556Z,10.00
2022-09-26T09:30:17.113Z,10.10
2022-09-26T09:32:43.171Z,10.00
2022-09-26T09:35:22.721Z,6.50
2022-09-26T09:37:57.298Z,5.80
2022-09-26T09:40:33.973Z,9.10
2022-09-26T09:42:52.985Z,10.50
2022-09-26T09:45:09.149Z,8.00
2022-09-26T09:47:24.288Z,6.80
2022-09-26T09:49:38.839Z,8.20
2022-09-26T09:52:03.572Z,7.50
2022-09-26T09:54:43.578Z,8.00
2022-09-26T09:57:08.221Z,7.10
2022-09-26T09:59:44.330Z,16.10
2022-09-26T10:02:03.669Z,8.50
2022-09-26T10:04:36.069Z,8.20
2022-09-26T10:09:35.928Z,11.00
2022-09-26T10:12:01.913Z,10.10
2022-09-26T10:17:15.713Z,8.50
2022-09-26T10:19:43.433Z,9.50
2022-09-26T10:21:57.380Z,11.70
2022-09-26T10:24:25.247Z,10.30
2022-09-26T10:26:48.432Z,9.90
2022-09-26T10:29:25.224Z,8.10
2022-09-26T10:31:43.060Z,10.30
2022-09-26T10:34:06.742Z,10.10
2022-09-26T10:36:25.036Z,19.00
2022-09-26T10:39:12.262Z,17.60
2022-09-26T10:41:30.606Z,30.00
2022-09-26T10:43:55.232Z,29.10
2022-09-26T10:46:28.358Z,43.50
2022-09-26T10:49:03.410Z,55.10
2022-09-26T10:51:42.705Z,59.30
2022-09-26T10:53:58.550Z,46.50
2022-09-26T10:56:18.175Z,40.50
2022-09-26T10:58:33.645Z,37.60
2022-09-26T11:00:51.748Z,22.00
2022-09-26T11:03:07.787Z,21.10
2022-09-26T11:05:41.527Z,17.00
2022-09-26T11:08:02.870Z,12.60
2022-09-26T11:10:37.550Z,16.60
2022-09-26T11:13:07.174Z,23.80
2022-09-26T11:15:21.585Z,21.10
2022-09-26T11:17:51.913Z,29.80
2022-09-26T11:20:10.684Z,27.10
2022-09-26T11:22:28.517Z,33.30
2022-09-26T11:24:49.891Z,29.60
2022-09-26T11:27:15.255Z,38.50
2022-09-26T11:29:37.384Z,48.20
2022-09-26T11:32:00.055Z,42.80
2022-09-26T11:34:38.199Z,38.80
2022-09-26T11:37:14.609Z,41.10
2022-09-26T11:39:43.594Z,41.80
2022-09-26T11:42:10.592Z,34.30
2022-09-26T11:44:46.885Z,29.50
2022-09-26T11:47:22.347Z,27.00
2022-09-26T11:49:57.324Z,23.60
2022-09-26T11:52:48.369Z,24.30
2022-09-26T11:55:15.735Z,20.90
2022-09-26T11:57:43.200Z,15.70
2022-09-26T12:00:11.466Z,19.50
2022-09-26T12:02:58.556Z,23.20
2022-09-26T12:05:33.671Z,14.80
2022-09-26T12:07:52.298Z,19.40
2022-09-26T12:10:18.557Z,21.20
2022-09-26T12:12:43.105Z,20.40
2022-09-26T12:15:10.887Z,16.10
2022-09-26T12:17:28.760Z,12.60
2022-09-26T12:19:47.367Z,14.70
2022-09-26T12:22:25.743Z,13.70
2022-09-26T12:24:46.438Z,18.00
2022-09-26T12:27:08.133Z,16.70
2022-09-26T12:29:42.244Z,15.50
2022-09-26T12:32:10.721Z,14.20
2022-09-26T12:34:42.403Z,18.50
2022-09-26T12:37:05.635Z,14.40
2022-09-26T12:39:32.453Z,16.20
2022-09-26T12:42:09.596Z,20.40
2022-09-26T12:44:40.097Z,14.50
2022-09-26T12:47:08.554Z,15.60
2022-09-26T12:49:46.266Z,18.80
2022-09-26T12:52:05.429Z,16.90
2022-09-26T12:54:37.734Z,16.30
2022-09-26T12:57:06.173Z,14.80
2022-09-26T12:59:38.359Z,16.10
2022-09-26T13:02:18.151Z,14.60
2022-09-26T13:04:54.109Z,15.30
2022-09-26T13:07:20.058Z,16.60
2022-09-26T13:09:49.231Z,12.30
2022-09-26T13:12:18.075Z,12.20
2022-09-26T13:14:46.339Z,10.10
2022-09-26T13:17:12.705Z,14.90
2022-09-26T13:19:32.905Z,9.70
2022-09-26T13:21:52.280Z,12.00
2022-09-26T13:24:10.875Z,11.00
2022-09-26T13:26:30.207Z,7.90
2022-09-26T13:29:06.333Z,7.30
2022-09-26T13:31:24.205Z,10.40
2022-09-26T13:33:42.035Z,11.50
2022-09-26T13:35:59.268Z,8.70
2022-09-26T13:38:26.457Z,12.60
2022-09-26T13:40:48.416Z,7.10
2022-09-26T13:43:11.390Z,10.80
2022-09-26T13:45:33.516Z,9.50
2022-09-26T13:47:54.962Z,8.20
2022-09-26T13:50:24.486Z,7.00
2022-09-26T13:52:48.021Z,7.80
2022-09-26T13:55:06.568Z,7.10
2022-09-26T13:57:40.088Z,10.70
2022-09-26T13:59:59.702Z,8.50
2022-09-26T14:02:37.664Z,10.00
2022-09-26T14:04:52.039Z,8.80
2022-09-26T14:07:36.810Z,8.60
2022-09-26T14:10:08.741Z,9.50
2022-09-26T14:12:34.370Z,10.60
2022-09-26T14:14:54.082Z,8.00
2022-09-26T14:17:28.799Z,6.60
2022-09-26T14:19:46.173Z,9.90
2022-09-26T14:22:09.893Z,8.40
2022-09-26T14:24:44.228Z,10.80
2022-09-26T14:27:06.966Z,11.50
2022-09-26T14:31:44.262Z,13.90
2022-09-26T14:34:14.806Z,14.50
2022-09-26T14:36:38.439Z,13.00
2022-09-26T14:38:56.026Z,16.10
2022-09-26T14:41:10.032Z,10.60
2022-09-26T14:43:26.946Z,17.30
2022-09-26T14:45:52.604Z,18.30
2022-09-26T14:48:17.113Z,26.50
2022-09-26T14:50:36.533Z,18.50
2022-09-26T14:52:57.613Z,23.80
2022-09-26T14:55:12.020Z,20.80
2022-09-26T14:57:32.833Z,30.70
2022-09-26T14:59:49.515Z,18.10
2022-09-26T15:02:25.547Z,24.30
2022-09-26T15:04:39.833Z,20.70
2022-09-26T15:06:54.973Z,23.20
2022-09-26T15:09:15.622Z,16.40
2022-09-26T15:11:41.242Z,10.80
2022-09-26T15:13:56.544Z,14.90
2022-09-26T15:16:33.635Z,19.80
2022-09-26T15:18:49.471Z,17.30
2022-09-26T15:21:07.408Z,10.50
2022-09-26T15:23:32.299Z,17.60
2022-09-26T15:25:45.930Z,15.00
2022-09-26T15:28:00.546Z,16.40
2022-09-26T15:30:23.753Z,11.40
2022-09-26T15:32:38.136Z,6.20
2022-09-26T15:34:52.287Z,6.30
2022-09-26T15:37:12.416Z,14.10
2022-09-26T15:39:45.681Z,8.80
2022-09-26T15:42:14.915Z,16.70
2022-09-26T15:44:30.316Z,11.00
2022-09-26T15:46:44.083Z,7.60
2022-09-26T15:48:58.694Z,8.60
2022-09-26T15:51:19.384Z,12.30
2022-09-26T15:53:38.444Z,12.00
2022-09-26T15:55:57.341Z,8.80
2022-09-26T15:58:16.580Z,6.60
2022-09-26T16:00:33.433Z,10.40
2022-09-26T16:02:47.809Z,10.10
2022-09-26T16:05:02.192Z,10.00
2022-09-26T16:07:23.935Z,6.10
2022-09-26T16:09:44.248Z,8.10
2022-09-26T16:12:01.673Z,11.80
2022-09-26T16:14:27.959Z,7.90
2022-09-26T16:16:41.400Z,6.20
2022-09-26T16:19:01.810Z,6.90
2022-09-26T16:21:26.982Z,7.30
2022-09-26T16:23:51.556Z,8.20
2022-09-26T16:26:06.230Z,4.00
2022-09-26T16:28:49.304Z,11.20
2022-09-26T16:35:52.765Z,5.90
2022-09-26T16:38:08.553Z,5.00
2022-09-26T16:40:23.659Z,12.10
2022-09-26T16:42:37.991Z,7.20
2022-09-26T16:44:57.346Z,6.60
2022-09-26T16:47:31.934Z,7.50
2022-09-26T16:49:50.663Z,5.90
2022-09-26T16:52:28.072Z,7.90
2022-09-26T16:54:41.508Z,9.00
2022-09-26T16:56:55.769Z,12.30
2022-09-26T16:59:17.784Z,14.00
2022-09-26T17:01:47.816Z,6.40
2022-09-26T17:04:01.635Z,7.70
2022-09-26T17:06:16.349Z,5.90
2022-09-26T17:08:30.269Z,8.30
2022-09-26T17:10:45.177Z,5.30
2022-09-26T17:13:03.699Z,20.10
2022-09-26T17:15:24.629Z,28.00
2022-09-26T17:17:39.600Z,44.90
2022-09-26T17:19:59.392Z,47.90
2022-09-26T17:22:18.814Z,19.60
2022-09-26T17:24:34.278Z,20.20
2022-09-26T17:26:52.411Z,25.00
2022-09-26T17:29:08.364Z,27.20
2022-09-26T17:31:23.329Z,19.50
2022-09-26T17:33:37.779Z,20.60
2022-09-26T17:35:51.386Z,11.70
2022-09-26T17:38:04.887Z,13.20
2022-09-26T17:40:25.356Z,17.00
2022-09-26T17:42:38.677Z,33.70
2022-09-26T17:44:52.243Z,19.50
2022-09-26T17:47:06.227Z,50.90
2022-09-26T17:49:23.956Z,38.10
2022-09-26T17:51:37.950Z,33.20
2022-09-26T17:53:53.531Z,25.70
2022-09-26T17:56:07.738Z,22.40
2022-09-26T17:58:21.452Z,23.40
2022-09-26T18:00:44.818Z,18.10
2022-09-26T18:03:05.058Z,26.40
2022-09-26T18:05:23.884Z,27.70
2022-09-26T18:07:41.753Z,14.00
2022-09-26T18:09:55.688Z,13.70
2022-09-26T18:12:13.528Z,15.60
2022-09-26T18:14:26.751Z,17.30
2022-09-26T18:16:40.150Z,32.60
2022-09-26T18:18:53.871Z,17.90
2022-09-26T18:21:07.212Z,14.80
2022-09-26T18:23:24.722Z,25.10
2022-09-26T18:25:40.301Z,23.10
2022-09-26T18:27:55.337Z,17.70
2022-09-26T18:30:10.262Z,10.60
2022-09-26T18:32:29.298Z,26.90
2022-09-26T18:34:42.609Z,16.20
2022-09-26T18:36:58.245Z,9.90
2022-09-26T18:39:11.692Z,30.40
2022-09-26T18:41:27.785Z,19.60
2022-09-26T18:43:43.565Z,30.80
2022-09-26T18:45:58.785Z,22.40
2022-09-26T18:48:16.381Z,25.80
2022-09-26T18:50:36.127Z,29.50
2022-09-26T18:52:49.472Z,22.40
2022-09-26T18:55:18.924Z,14.00
2022-09-26T18:57:48.674Z,29.40
2022-09-26T19:00:02.293Z,33.60
2022-09-26T19:02:25.032Z,16.30
2022-09-26T19:04:38.631Z,22.40
2022-09-26T19:07:01.115Z,19.80
2022-09-26T19:11:30.442Z,23.90
2022-09-26T19:13:43.683Z,16.50
2022-09-26T19:15:57.025Z,23.50
2022-09-26T19:18:11.126Z,18.10
2022-09-26T19:20:24.467Z,21.00
2022-09-26T19:22:37.911Z,15.70
2022-09-26T19:24:53.796Z,10.90
2022-09-26T19:27:09.372Z,15.20
2022-09-26T19:29:31.896Z,9.00
2022-09-26T19:31:45.693Z,10.10
2022-09-26T19:34:00.105Z,7.90
2022-09-26T19:36:16.047Z,16.70
2022-09-26T19:38:30.360Z,6.80
2022-09-26T19:40:48.361Z,18.50
2022-09-26T19:43:02.216Z,18.90
2022-09-26T19:45:16.957Z,16.70
2022-09-26T19:47:31.716Z,14.80
2022-09-26T19:49:45.041Z,15.30
2022-09-26T19:51:58.380Z,14.40
2022-09-26T19:54:13.739Z,7.30
2022-09-26T19:56:27.638Z,15.20
2022-09-26T19:58:41.268Z,8.80
2022-09-26T20:00:57.251Z,5.70
2022-09-26T20:03:12.732Z,11.90
2022-09-26T20:05:28.113Z,17.60
2022-09-26T20:07:41.347Z,17.50
2022-09-26T20:09:56.017Z,29.70
2022-09-26T20:12:09.631Z,10.30
2022-09-26T20:14:28.694Z,21.60
2022-09-26T20:16:45.115Z,25.20
2022-09-26T20:18:58.836Z,17.00
2022-09-26T20:21:14.428Z,15.20
2022-09-26T20:23:29.613Z,23.80
2022-09-26T20:25:43.021Z,12.10
2022-09-26T20:27:56.362Z,10.10
2022-09-26T20:30:30.373Z,9.60
2022-09-26T20:32:44.035Z,11.80
2022-09-26T20:35:00.375Z,5.20
2022-09-26T20:37:16.153Z,6.50
2022-09-26T20:39:30.692Z,8.40
2022-09-26T20:41:45.666Z,16.70
2022-09-26T20:44:04.869Z,29.40
2022-09-26T20:46:19.326Z,18.70
2022-09-26T20:48:35.656Z,13.40
2022-09-26T20:50:49.725Z,13.40
2022-09-26T20:53:02.950Z,20.50
2022-09-26T20:55:20.785Z,16.60
2022-09-26T20:57:34.059Z,21.60
2022-09-26T20:59:47.349Z,18.40
2022-09-26T21:02:01.678Z,19.90
2022-09-26T21:04:20.154Z,14.70
2022-09-26T21:06:37.522Z,17.70
2022-09-26T21:08:50.980Z,23.80
2022-09-26T21:11:04.341Z,12.20
2022-09-26T21:13:18.083Z,24.40
2022-09-26T21:15:33.055Z,21.80
2022-09-26T21:17:47.018Z,38.80
2022-09-26T21:20:00.351Z,21.00
2022-09-26T21:22:38.076Z,18.80
2022-09-26T21:24:52.124Z,9.50
2022-09-26T21:27:05.375Z,18.80
2022-09-26T21:29:21.532Z,40.80
2022-09-26T21:31:36.656Z,20.00
2022-09-26T21:33:50.038Z,20.90
2022-09-26T21:36:04.064Z,36.00
2022-09-26T21:38:17.504Z,22.20
2022-09-26T21:40:35.032Z,23.90
2022-09-26T21:42:51.669Z,22.20
2022-09-26T21:45:09.190Z,22.00
2022-09-26T21:47:23.154Z,15.90
2022-09-26T21:49:36.479Z,10.20
2022-09-26T21:51:53.135Z,13.40
2022-09-26T21:54:10.313Z,21.00
2022-09-26T21:56:27.381Z,12.10
2022-09-26T21:58:44.507Z,22.20
2022-09-26T22:00:58.888Z,20.50
2022-09-26T22:03:12.379Z,10.40
2022-09-26T22:05:25.640Z,30.20
2022-09-26T22:07:38.956Z,16.50
2022-09-26T22:09:52.565Z,16.50
2022-09-26T22:12:06.068Z,33.30
2022-09-26T22:14:19.541Z,10.60
2022-09-26T22:16:32.880Z,12.80
2022-09-26T22:18:46.526Z,14.30
2022-09-26T22:21:06.056Z,20.70
2022-09-26T22:23:19.475Z,10.30
2022-09-26T22:25:32.984Z,21.30
2022-09-26T22:27:46.294Z,20.20
2022-09-26T22:29:59.699Z,14.40
2022-09-26T22:32:13.137Z,29.20
2022-09-26T22:34:27.412Z,17.90
2022-09-26T22:36:40.986Z,17.30
2022-09-26T22:38:54.541Z,39.50
2022-09-26T22:41:09.449Z,30.40
2022-09-26T22:43:22.673Z,30.90
2022-09-26T22:45:36.578Z,28.60
2022-09-26T22:47:49.913Z,6.10
2022-09-26T22:50:03.312Z,23.30
2022-09-26T22:52:16.615Z,29.60
2022-09-26T22:54:30.042Z,17.00
2022-09-26T22:56:43.415Z,7.40
2022-09-26T22:58:57.414Z,16.90
2022-09-26T23:01:12.787Z,20.50
2022-09-26T23:03:26.406Z,10.10
2022-09-26T23:05:40.870Z,6.10
2022-09-26T23:07:56.081Z,13.10
2022-09-26T23:10:09.577Z,16.30
2022-09-26T23:12:22.949Z,23.30
2022-09-26T23:14:36.207Z,18.50
2022-09-26T23:16:49.608Z,26.10
2022-09-26T23:19:03.673Z,13.40
2022-09-26T23:21:18.246Z,29.90
2022-09-26T23:23:31.569Z,12.20
2022-09-26T23:25:51.451Z,6.60
2022-09-26T23:28:04.869Z,17.60
2022-09-26T23:30:19.358Z,7.40
2022-09-26T23:32:32.602Z,14.60
2022-09-26T23:34:45.819Z,20.10
2022-09-26T23:36:59.647Z,42.40
2022-09-26T23:39:13.030Z,26.00
2022-09-26T23:41:26.360Z,24.90
2022-09-26T23:43:39.974Z,18.20
2022-09-26T23:45:53.387Z,22.10
2022-09-26T23:48:07.063Z,18.80
2022-09-26T23:50:20.383Z,17.40
2022-09-26T23:52:33.505Z,33.80
2022-09-26T23:54:46.887Z,10.50
2022-09-26T23:57:00.137Z,8.10
2022-09-26T23:59:13.510Z,5.20
